sensor_id;sensor_type;location;lat;lon;timestamp;pressure;altitude;pressure_sealevel;temperature
72236;BMP280;60146;52.498;13.462;2023-09-19T00:02:16;97304.91;;;19.44
72236;BMP280;60146;52.498;13.462;2023-09-19T00:04:41;97294.97;;;19.32
72236;BMP280;60146;52.498;13.462;2023-09-19T00:07:08;97235.63;;;19.26
72236;BMP280;60146;52.498;13.462;2023-09-19T00:09:34;97282.38;;;19.36
72236;BMP280;60146;52.498;13.462;2023-09-19T00:12:05;97253.47;;;19.26
72236;BMP280;60146;52.498;13.462;2023-09-19T00:14:30;97262.97;;;19.23
72236;BMP280;60146;52.498;13.462;2023-09-19T00:16:59;97270.63;;;19.21
72236;BMP280;60146;52.498;13.462;2023-09-19T00:19:25;97244.84;;;19.22
72236;BMP280;60146;52.498;13.462;2023-09-19T00:21:51;97217.72;;;19.14
72236;BMP280;60146;52.498;13.462;2023-09-19T00:24:18;97204.38;;;19.18
72236;BMP280;60146;52.498;13.462;2023-09-19T00:26:43;97197.59;;;19.17
72236;BMP280;60146;52.498;13.462;2023-09-19T00:29:09;97194.78;;;19.08
72236;BMP280;60146;52.498;13.462;2023-09-19T00:31:34;97184.25;;;19.05
72236;BMP280;60146;52.498;13.462;2023-09-19T00:34:02;97143.72;;;19.04
72236;BMP280;60146;52.498;13.462;2023-09-19T00:36:29;97158.38;;;19.09
72236;BMP280;60146;52.498;13.462;2023-09-19T00:38:55;97185.41;;;19.04
72236;BMP280;60146;52.498;13.462;2023-09-19T00:41:20;97179.47;;;19.00
72236;BMP280;60146;52.498;13.462;2023-09-19T00:43:46;97201.34;;;19.04
72236;BMP280;60146;52.498;13.462;2023-09-19T00:46:18;97172.38;;;18.97
72236;BMP280;60146;52.498;13.462;2023-09-19T00:48:43;97144.66;;;18.98
72236;BMP280;60146;52.498;13.462;2023-09-19T00:51:09;97129.94;;;18.97
72236;BMP280;60146;52.498;13.462;2023-09-19T00:53:35;97174.34;;;18.93
72236;BMP280;60146;52.498;13.462;2023-09-19T00:56:05;97193.34;;;18.92
72236;BMP280;60146;52.498;13.462;2023-09-19T00:58:32;97148.13;;;18.95
72236;BMP280;60146;52.498;13.462;2023-09-19T01:00:59;97151.00;;;18.88
72236;BMP280;60146;52.498;13.462;2023-09-19T01:03:24;97177.53;;;18.88
72236;BMP280;60146;52.498;13.462;2023-09-19T01:05:49;97142.06;;;18.82
72236;BMP280;60146;52.498;13.462;2023-09-19T01:08:15;97167.72;;;18.85
72236;BMP280;60146;52.498;13.462;2023-09-19T01:10:48;97136.75;;;18.82
72236;BMP280;60146;52.498;13.462;2023-09-19T01:13:58;97166.69;;;18.83
72236;BMP280;60146;52.498;13.462;2023-09-19T01:16:37;97159.69;;;18.89
72236;BMP280;60146;52.498;13.462;2023-09-19T01:22:13;97181.53;;;18.80
72236;BMP280;60146;52.498;13.462;2023-09-19T01:30:18;97132.81;;;18.75
72236;BMP280;60146;52.498;13.462;2023-09-19T01:32:49;97094.59;;;18.72
72236;BMP280;60146;52.498;13.462;2023-09-19T01:35:17;97126.34;;;18.76
72236;BMP280;60146;52.498;13.462;2023-09-19T01:37:43;97185.91;;;18.87
72236;BMP280;60146;52.498;13.462;2023-09-19T01:40:10;97179.47;;;18.88
72236;BMP280;60146;52.498;13.462;2023-09-19T01:48:42;97283.47;;;18.95
72236;BMP280;60146;52.498;13.462;2023-09-19T01:51:14;97257.03;;;18.92
72236;BMP280;60146;52.498;13.462;2023-09-19T01:54:02;97304.09;;;19.03
72236;BMP280;60146;52.498;13.462;2023-09-19T01:56:35;97305.53;;;18.92
72236;BMP280;60146;52.498;13.462;2023-09-19T01:59:07;97297.47;;;18.96
72236;BMP280;60146;52.498;13.462;2023-09-19T02:01:34;97295.00;;;18.89
72236;BMP280;60146;52.498;13.462;2023-09-19T02:04:02;97280.28;;;18.88
72236;BMP280;60146;52.498;13.462;2023-09-19T02:06:27;97266.75;;;18.82
72236;BMP280;60146;52.498;13.462;2023-09-19T02:08:54;97239.81;;;18.84
72236;BMP280;60146;52.498;13.462;2023-09-19T02:11:19;97219.59;;;18.74
72236;BMP280;60146;52.498;13.462;2023-09-19T02:13:44;97201.44;;;18.73
72236;BMP280;60146;52.498;13.462;2023-09-19T02:16:10;97176.41;;;18.74
72236;BMP280;60146;52.498;13.462;2023-09-19T02:18:36;97187.13;;;18.70
72236;BMP280;60146;52.498;13.462;2023-09-19T02:21:02;97195.50;;;18.69
72236;BMP280;60146;52.498;13.462;2023-09-19T02:23:27;97200.81;;;18.69
72236;BMP280;60146;52.498;13.462;2023-09-19T02:25:56;97191.44;;;18.64
72236;BMP280;60146;52.498;13.462;2023-09-19T02:28:29;97145.78;;;18.57
72236;BMP280;60146;52.498;13.462;2023-09-19T02:30:55;97123.94;;;18.53
72236;BMP280;60146;52.498;13.462;2023-09-19T02:33:21;97086.47;;;18.51
72236;BMP280;60146;52.498;13.462;2023-09-19T02:35:46;97092.41;;;18.55
72236;BMP280;60146;52.498;13.462;2023-09-19T02:38:12;97117.38;;;18.58
72236;BMP280;60146;52.498;13.462;2023-09-19T02:40:38;97127.47;;;18.62
72236;BMP280;60146;52.498;13.462;2023-09-19T02:43:03;97137.00;;;18.60
72236;BMP280;60146;52.498;13.462;2023-09-19T02:45:30;97170.97;;;18.65
72236;BMP280;60146;52.498;13.462;2023-09-19T02:47:56;97167.41;;;18.56
72236;BMP280;60146;52.498;13.462;2023-09-19T02:50:22;97127.88;;;18.61
72236;BMP280;60146;52.498;13.462;2023-09-19T02:52:48;97158.56;;;18.62
72236;BMP280;60146;52.498;13.462;2023-09-19T02:55:17;97189.53;;;18.65
72236;BMP280;60146;52.498;13.462;2023-09-19T03:00:13;97145.59;;;18.64
72236;BMP280;60146;52.498;13.462;2023-09-19T03:02:38;97200.81;;;18.69
72236;BMP280;60146;52.498;13.462;2023-09-19T03:05:07;97210.91;;;18.74
72236;BMP280;60146;52.498;13.462;2023-09-19T03:07:32;97255.13;;;18.77
72236;BMP280;60146;52.498;13.462;2023-09-19T03:09:58;97223.00;;;18.75
72236;BMP280;60146;52.498;13.462;2023-09-19T03:12:23;97267.44;;;18.71
72236;BMP280;60146;52.498;13.462;2023-09-19T03:14:48;97285.00;;;18.80
72236;BMP280;60146;52.498;13.462;2023-09-19T03:17:15;97303.16;;;18.82
72236;BMP280;60146;52.498;13.462;2023-09-19T03:19:41;97319.41;;;18.84
72236;BMP280;60146;52.498;13.462;2023-09-19T03:22:15;97379.09;;;18.92
72236;BMP280;60146;52.498;13.462;2023-09-19T03:24:41;97436.72;;;18.91
72236;BMP280;60146;52.498;13.462;2023-09-19T03:27:09;97439.69;;;18.93
72236;BMP280;60146;52.498;13.462;2023-09-19T03:29:35;97487.16;;;18.91
72236;BMP280;60146;52.498;13.462;2023-09-19T03:32:00;97536.06;;;18.90
72236;BMP280;60146;52.498;13.462;2023-09-19T03:34:26;97610.38;;;18.90
72236;BMP280;60146;52.498;13.462;2023-09-19T03:36:52;97620.66;;;18.88
72236;BMP280;60146;52.498;13.462;2023-09-19T03:39:17;97647.91;;;18.89
72236;BMP280;60146;52.498;13.462;2023-09-19T03:41:43;97637.38;;;18.85
72236;BMP280;60146;52.498;13.462;2023-09-19T03:44:08;97624.66;;;18.77
72236;BMP280;60146;52.498;13.462;2023-09-19T03:46:33;97694.59;;;18.86
72236;BMP280;60146;52.498;13.462;2023-09-19T03:49:00;97760.59;;;18.84
72236;BMP280;60146;52.498;13.462;2023-09-19T03:51:26;97770.88;;;18.82
72236;BMP280;60146;52.498;13.462;2023-09-19T03:53:51;97766.84;;;18.75
72236;BMP280;60146;52.498;13.462;2023-09-19T03:56:16;97755.69;;;18.83
72236;BMP280;60146;52.498;13.462;2023-09-19T03:58:42;97755.47;;;18.74
72236;BMP280;60146;52.498;13.462;2023-09-19T04:01:16;97755.56;;;18.71
72236;BMP280;60146;52.498;13.462;2023-09-19T04:03:43;97760.56;;;18.65
72236;BMP280;60146;52.498;13.462;2023-09-19T04:06:14;97718.19;;;18.62
72236;BMP280;60146;52.498;13.462;2023-09-19T04:08:39;97789.81;;;18.62
72236;BMP280;60146;52.498;13.462;2023-09-19T04:11:05;97855.38;;;18.61
72236;BMP280;60146;52.498;13.462;2023-09-19T04:13:30;97935.59;;;18.69
72236;BMP280;60146;52.498;13.462;2023-09-19T04:15:55;98011.59;;;18.82
72236;BMP280;60146;52.498;13.462;2023-09-19T04:18:21;98082.28;;;18.69
72236;BMP280;60146;52.498;13.462;2023-09-19T04:20:49;98161.00;;;18.79
72236;BMP280;60146;52.498;13.462;2023-09-19T04:23:15;98181.50;;;18.75
72236;BMP280;60146;52.498;13.462;2023-09-19T04:25:41;98230.41;;;18.74
72236;BMP280;60146;52.498;13.462;2023-09-19T04:28:06;98299.34;;;18.84
72236;BMP280;60146;52.498;13.462;2023-09-19T04:30:33;98318.34;;;18.79
72236;BMP280;60146;52.498;13.462;2023-09-19T04:32:58;98351.66;;;18.84
72236;BMP280;60146;52.498;13.462;2023-09-19T04:35:24;98333.13;;;18.77
72236;BMP280;60146;52.498;13.462;2023-09-19T04:37:50;98360.38;;;18.84
72236;BMP280;60146;52.498;13.462;2023-09-19T04:40:16;98390.31;;;18.88
72236;BMP280;60146;52.498;13.462;2023-09-19T04:42:45;98404.78;;;18.77
72236;BMP280;60146;52.498;13.462;2023-09-19T04:45:11;98413.56;;;18.67
72236;BMP280;60146;52.498;13.462;2023-09-19T04:47:37;98409.41;;;18.70
72236;BMP280;60146;52.498;13.462;2023-09-19T04:50:09;98381.69;;;18.74
72236;BMP280;60146;52.498;13.462;2023-09-19T04:52:42;98397.31;;;18.62
72236;BMP280;60146;52.498;13.462;2023-09-19T04:55:10;98414.34;;;18.64
72236;BMP280;60146;52.498;13.462;2023-09-19T04:57:36;98409.44;;;18.59
72236;BMP280;60146;52.498;13.462;2023-09-19T05:00:02;98409.06;;;18.61
72236;BMP280;60146;52.498;13.462;2023-09-19T05:02:33;98390.88;;;18.56
72236;BMP280;60146;52.498;13.462;2023-09-19T05:04:59;98390.50;;;18.58
72236;BMP280;60146;52.498;13.462;2023-09-19T05:07:25;98440.94;;;18.54
72236;BMP280;60146;52.498;13.462;2023-09-19T05:09:51;98386.09;;;18.41
72236;BMP280;60146;52.498;13.462;2023-09-19T05:12:16;98391.75;;;18.43
72236;BMP280;60146;52.498;13.462;2023-09-19T05:14:45;98391.72;;;18.50
72236;BMP280;60146;52.498;13.462;2023-09-19T05:17:10;98394.69;;;18.55
72236;BMP280;60146;52.498;13.462;2023-09-19T05:19:35;98450.44;;;18.48
72236;BMP280;60146;52.498;13.462;2023-09-19T05:22:02;98450.47;;;18.45
72236;BMP280;60146;52.498;13.462;2023-09-19T05:24:29;98445.53;;;18.43
72236;BMP280;60146;52.498;13.462;2023-09-19T05:26:55;98483.44;;;18.44
72236;BMP280;60146;52.498;13.462;2023-09-19T05:29:21;98492.16;;;18.44
72236;BMP280;60146;52.498;13.462;2023-09-19T05:31:47;98487.25;;;18.36
72236;BMP280;60146;52.498;13.462;2023-09-19T05:34:13;98509.59;;;18.39
72236;BMP280;60146;52.498;13.462;2023-09-19T05:36:38;98516.44;;;18.40
72236;BMP280;60146;52.498;13.462;2023-09-19T05:39:04;98516.44;;;18.40
72236;BMP280;60146;52.498;13.462;2023-09-19T05:41:33;98519.84;;;18.37
72236;BMP280;60146;52.498;13.462;2023-09-19T05:43:59;98530.44;;;18.40
72236;BMP280;60146;52.498;13.462;2023-09-19T05:46:24;98471.34;;;18.40
72236;BMP280;60146;52.498;13.462;2023-09-19T05:48:55;98515.28;;;18.37
72236;BMP280;60146;52.498;13.462;2023-09-19T05:51:22;98525.16;;;18.40
72236;BMP280;60146;52.498;13.462;2023-09-19T05:53:48;98540.69;;;18.35
72236;BMP280;60146;52.498;13.462;2023-09-19T05:56:14;98515.28;;;18.40
72236;BMP280;60146;52.498;13.462;2023-09-19T05:58:40;98570.59;;;18.39
72236;BMP280;60146;52.498;13.462;2023-09-19T06:01:08;98566.81;;;18.36
72236;BMP280;60146;52.498;13.462;2023-09-19T06:03:35;98554.72;;;18.32
72236;BMP280;60146;52.498;13.462;2023-09-19T06:06:01;98584.25;;;18.37
72236;BMP280;60146;52.498;13.462;2023-09-19T06:08:27;98590.34;;;18.31
72236;BMP280;60146;52.498;13.462;2023-09-19T06:10:53;98613.78;;;18.42
72236;BMP280;60146;52.498;13.462;2023-09-19T06:13:18;98648.66;;;18.44
72236;BMP280;60146;52.498;13.462;2023-09-19T06:15:45;98646.03;;;18.41
72236;BMP280;60146;52.498;13.462;2023-09-19T06:18:12;98660.03;;;18.41
72236;BMP280;60146;52.498;13.462;2023-09-19T06:20:42;98629.69;;;18.39
72236;BMP280;60146;52.498;13.462;2023-09-19T06:23:09;98649.81;;;18.40
72236;BMP280;60146;52.498;13.462;2023-09-19T06:25:35;98658.47;;;18.47
72236;BMP280;60146;52.498;13.462;2023-09-19T06:28:00;98647.53;;;18.45
72236;BMP280;60146;52.498;13.462;2023-09-19T06:30:30;98649.38;;;18.55
72236;BMP280;60146;52.498;13.462;2023-09-19T06:32:58;98699.44;;;18.50
72236;BMP280;60146;52.498;13.462;2023-09-19T06:35:24;98650.91;;;18.46
72236;BMP280;60146;52.498;13.462;2023-09-19T06:37:51;98664.56;;;18.51
72236;BMP280;60146;52.498;13.462;2023-09-19T06:40:18;98721.03;;;18.62
72236;BMP280;60146;52.498;13.462;2023-09-19T06:42:45;98743.00;;;18.59
72236;BMP280;60146;52.498;13.462;2023-09-19T06:45:12;98782.78;;;18.73
72236;BMP280;60146;52.498;13.462;2023-09-19T06:47:39;98784.69;;;18.76
72236;BMP280;60146;52.498;13.462;2023-09-19T06:50:05;98799.84;;;18.82
72236;BMP280;60146;52.498;13.462;2023-09-19T06:52:34;98820.69;;;18.90
72236;BMP280;60146;52.498;13.462;2023-09-19T06:55:00;98796.06;;;18.97
72236;BMP280;60146;52.498;13.462;2023-09-19T06:57:28;98819.56;;;18.91
72236;BMP280;60146;52.498;13.462;2023-09-19T06:59:54;98808.53;;;19.06
72236;BMP280;60146;52.498;13.462;2023-09-19T07:02:19;98887.44;;;19.13
72236;BMP280;60146;52.498;13.462;2023-09-19T07:04:47;98865.03;;;19.20
72236;BMP280;60146;52.498;13.462;2023-09-19T07:07:12;98925.72;;;19.39
72236;BMP280;60146;52.498;13.462;2023-09-19T07:09:39;98977.75;;;19.53
72236;BMP280;60146;52.498;13.462;2023-09-19T07:12:05;98971.63;;;19.63
72236;BMP280;60146;52.498;13.462;2023-09-19T07:14:30;99044.13;;;20.01
72236;BMP280;60146;52.498;13.462;2023-09-19T07:16:56;99129.97;;;20.22
72236;BMP280;60146;52.498;13.462;2023-09-19T07:19:21;99170.63;;;20.46
72236;BMP280;60146;52.498;13.462;2023-09-19T07:21:47;99329.56;;;20.66
72236;BMP280;60146;52.498;13.462;2023-09-19T07:24:12;99340.19;;;20.63
72236;BMP280;60146;52.498;13.462;2023-09-19T07:26:38;99376.72;;;20.83
72236;BMP280;60146;52.498;13.462;2023-09-19T07:29:05;99437.63;;;20.98
72236;BMP280;60146;52.498;13.462;2023-09-19T07:31:32;99493.22;;;21.03
72236;BMP280;60146;52.498;13.462;2023-09-19T07:33:57;99446.75;;;20.87
72236;BMP280;60146;52.498;13.462;2023-09-19T07:36:23;99451.31;;;20.90
72236;BMP280;60146;52.498;13.462;2023-09-19T07:38:49;99481.78;;;20.96
72236;BMP280;60146;52.498;13.462;2023-09-19T07:41:15;99485.94;;;20.69
72236;BMP280;60146;52.498;13.462;2023-09-19T07:43:40;99544.63;;;21.03
72236;BMP280;60146;52.498;13.462;2023-09-19T07:46:06;99518.34;;;21.12
72236;BMP280;60146;52.498;13.462;2023-09-19T07:48:43;99613.56;;;21.36
72236;BMP280;60146;52.498;13.462;2023-09-19T07:51:13;99604.78;;;21.35
72236;BMP280;60146;52.498;13.462;2023-09-19T07:53:41;99685.97;;;21.41
72236;BMP280;60146;52.498;13.462;2023-09-19T07:56:08;99688.53;;;21.14
72236;BMP280;60146;52.498;13.462;2023-09-19T07:58:34;99637.19;;;21.54
72236;BMP280;60146;52.498;13.462;2023-09-19T08:01:08;99783.56;;;21.83
72236;BMP280;60146;52.498;13.462;2023-09-19T08:03:34;99894.97;;;22.10
72236;BMP280;60146;52.498;13.462;2023-09-19T08:06:00;99878.88;;;21.86
72236;BMP280;60146;52.498;13.462;2023-09-19T08:08:26;99924.47;;;21.50
72236;BMP280;60146;52.498;13.462;2023-09-19T08:10:57;99966.97;;;21.86
72236;BMP280;60146;52.498;13.462;2023-09-19T08:13:23;99950.59;;;21.97
72236;BMP280;60146;52.498;13.462;2023-09-19T08:15:49;99934.50;;;21.70
72236;BMP280;60146;52.498;13.462;2023-09-19T08:18:16;100133.97;;;22.56
72236;BMP280;60146;52.498;13.462;2023-09-19T08:20:41;100217.78;;;23.01
72236;BMP280;60146;52.498;13.462;2023-09-19T08:23:11;100228.31;;;22.67
72236;BMP280;60146;52.498;13.462;2023-09-19T08:25:36;100138.19;;;21.94
72236;BMP280;60146;52.498;13.462;2023-09-19T08:28:03;100073.19;;;21.67
72236;BMP280;60146;52.498;13.462;2023-09-19T08:30:33;100015.88;;;21.40
72236;BMP280;60146;52.498;13.462;2023-09-19T08:33:00;100063.44;;;21.38
72236;BMP280;60146;52.498;13.462;2023-09-19T08:35:27;100065.59;;;21.69
72236;BMP280;60146;52.498;13.462;2023-09-19T08:37:52;100088.28;;;22.02
72236;BMP280;60146;52.498;13.462;2023-09-19T08:40:18;100223.09;;;22.25
72236;BMP280;60146;52.498;13.462;2023-09-19T08:42:47;100319.41;;;23.08
72236;BMP280;60146;52.498;13.462;2023-09-19T08:45:14;100476.91;;;23.86
72236;BMP280;60146;52.498;13.462;2023-09-19T08:47:50;100524.56;;;24.74
72236;BMP280;60146;52.498;13.462;2023-09-19T08:50:23;100529.16;;;24.46
72236;BMP280;60146;52.498;13.462;2023-09-19T08:52:51;100574.41;;;25.33
72236;BMP280;60146;52.498;13.462;2023-09-19T08:55:23;100600.41;;;25.69
72236;BMP280;60146;52.498;13.462;2023-09-19T08:57:59;100622.78;;;26.47
72236;BMP280;60146;52.498;13.462;2023-09-19T09:00:26;100638.81;;;26.64
72236;BMP280;60146;52.498;13.462;2023-09-19T09:02:54;100640.06;;;26.49
72236;BMP280;60146;52.498;13.462;2023-09-19T09:05:20;100630.56;;;26.18
72236;BMP280;60146;52.498;13.462;2023-09-19T09:07:49;100659.59;;;27.13
72236;BMP280;60146;52.498;13.462;2023-09-19T09:10:18;100665.38;;;27.11
72236;BMP280;60146;52.498;13.462;2023-09-19T09:12:43;100672.88;;;26.87
72236;BMP280;60146;52.498;13.462;2023-09-19T09:15:09;100674.59;;;27.17
72236;BMP280;60146;52.498;13.462;2023-09-19T09:17:37;100695.69;;;27.65
72236;BMP280;60146;52.498;13.462;2023-09-19T09:20:03;100695.53;;;28.18
72236;BMP280;60146;52.498;13.462;2023-09-19T09:22:30;100699.06;;;28.12
72236;BMP280;60146;52.498;13.462;2023-09-19T09:24:57;100692.44;;;27.83
72236;BMP280;60146;52.498;13.462;2023-09-19T09:27:30;100700.38;;;28.30
72236;BMP280;60146;52.498;13.462;2023-09-19T09:29:58;100693.59;;;28.18
72236;BMP280;60146;52.498;13.462;2023-09-19T09:32:30;100692.88;;;28.44
72236;BMP280;60146;52.498;13.462;2023-09-19T09:35:02;100696.66;;;28.49
72236;BMP280;60146;52.498;13.462;2023-09-19T09:37:34;100698.19;;;26.96
72236;BMP280;60146;52.498;13.462;2023-09-19T09:40:03;100694.41;;;26.87
72236;BMP280;60146;52.498;13.462;2023-09-19T09:42:55;100700.50;;;26.98
72236;BMP280;60146;52.498;13.462;2023-09-19T09:45:24;100707.50;;;27.78
72236;BMP280;60146;52.498;13.462;2023-09-19T09:47:59;100682.91;;;28.92
72236;BMP280;60146;52.498;13.462;2023-09-19T09:50:46;100698.56;;;30.24
72236;BMP280;60146;52.498;13.462;2023-09-19T09:53:25;100713.63;;;29.68
72236;BMP280;60146;52.498;13.462;2023-09-19T09:56:08;100721.22;;;29.73
72236;BMP280;60146;52.498;13.462;2023-09-19T09:58:51;100715.91;;;29.03
72236;BMP280;60146;52.498;13.462;2023-09-19T10:01:21;100720.91;;;29.90
72236;BMP280;60146;52.498;13.462;2023-09-19T10:03:56;100718.63;;;30.77
72236;BMP280;60146;52.498;13.462;2023-09-19T10:06:22;100710.03;;;30.82
72236;BMP280;60146;52.498;13.462;2023-09-19T10:09:04;100709.88;;;30.19
72236;BMP280;60146;52.498;13.462;2023-09-19T10:11:41;100733.34;;;30.76
72236;BMP280;60146;52.498;13.462;2023-09-19T10:14:10;100725.88;;;30.49
72236;BMP280;60146;52.498;13.462;2023-09-19T10:16:40;100727.44;;;31.27
72236;BMP280;60146;52.498;13.462;2023-09-19T10:19:07;100731.66;;;31.44
72236;BMP280;60146;52.498;13.462;2023-09-19T10:21:36;100728.69;;;30.42
72236;BMP280;60146;52.498;13.462;2023-09-19T10:24:03;100716.59;;;32.22
72236;BMP280;60146;52.498;13.462;2023-09-19T10:26:32;100728.28;;;31.40
72236;BMP280;60146;52.498;13.462;2023-09-19T10:29:00;100722.19;;;31.91
72236;BMP280;60146;52.498;13.462;2023-09-19T10:31:28;100714.16;;;31.02
72236;BMP280;60146;52.498;13.462;2023-09-19T10:33:55;100721.00;;;31.92
72236;BMP280;60146;52.498;13.462;2023-09-19T10:36:24;100713.03;;;32.13
72236;BMP280;60146;52.498;13.462;2023-09-19T10:38:52;100714.41;;;33.23
72236;BMP280;60146;52.498;13.462;2023-09-19T10:41:21;100705.09;;;32.67
72236;BMP280;60146;52.498;13.462;2023-09-19T10:43:48;100698.88;;;33.45
72236;BMP280;60146;52.498;13.462;2023-09-19T10:46:14;100704.19;;;32.94
72236;BMP280;60146;52.498;13.462;2023-09-19T10:48:40;100710.72;;;32.24
72236;BMP280;60146;52.498;13.462;2023-09-19T10:51:12;100709.75;;;31.66
72236;BMP280;60146;52.498;13.462;2023-09-19T10:53:49;100709.75;;;31.66
72236;BMP280;60146;52.498;13.462;2023-09-19T10:56:27;100715.69;;;31.61
72236;BMP280;60146;52.498;13.462;2023-09-19T10:59:14;100708.91;;;31.54
72236;BMP280;60146;52.498;13.462;2023-09-19T11:01:52;100712.91;;;30.90
72236;BMP280;60146;52.498;13.462;2023-09-19T11:04:28;100713.38;;;31.32
72236;BMP280;60146;52.498;13.462;2023-09-19T11:09:51;100721.75;;;31.38
72236;BMP280;60146;52.498;13.462;2023-09-19T11:14:56;100704.94;;;30.99
72236;BMP280;60146;52.498;13.462;2023-09-19T11:17:34;100717.91;;;30.57
72236;BMP280;60146;52.498;13.462;2023-09-19T11:30:41;100734.97;;;31.04
72236;BMP280;60146;52.498;13.462;2023-09-19T11:36:16;100731.66;;;29.75
72236;BMP280;60146;52.498;13.462;2023-09-19T11:43:46;100723.31;;;26.73
72236;BMP280;60146;52.498;13.462;2023-09-19T11:46:11;100723.16;;;26.17
72236;BMP280;60146;52.498;13.462;2023-09-19T11:48:38;100733.16;;;26.06
72236;BMP280;60146;52.498;13.462;2023-09-19T11:51:24;100726.66;;;25.32
72236;BMP280;60146;52.498;13.462;2023-09-19T11:53:54;100723.22;;;25.38
72236;BMP280;60146;52.498;13.462;2023-09-19T11:56:21;100723.97;;;26.10
72236;BMP280;60146;52.498;13.462;2023-09-19T11:58:49;100731.88;;;26.44
72236;BMP280;60146;52.498;13.462;2023-09-19T12:01:21;100723.13;;;27.04
72236;BMP280;60146;52.498;13.462;2023-09-19T12:03:47;100731.28;;;27.46
72236;BMP280;60146;52.498;13.462;2023-09-19T12:06:18;100726.84;;;27.73
72236;BMP280;60146;52.498;13.462;2023-09-19T12:08:44;100727.38;;;27.94
72236;BMP280;60146;52.498;13.462;2023-09-19T12:11:13;100721.59;;;28.28
72236;BMP280;60146;52.498;13.462;2023-09-19T12:13:45;100726.25;;;28.24
72236;BMP280;60146;52.498;13.462;2023-09-19T12:16:13;100739.69;;;27.02
72236;BMP280;60146;52.498;13.462;2023-09-19T12:18:40;100731.00;;;27.31
72236;BMP280;60146;52.498;13.462;2023-09-19T12:21:21;100755.75;;;26.29
72236;BMP280;60146;52.498;13.462;2023-09-19T12:24:13;100744.34;;;25.64
72236;BMP280;60146;52.498;13.462;2023-09-19T12:26:40;100737.81;;;25.75
72236;BMP280;60146;52.498;13.462;2023-09-19T12:29:19;100734.22;;;26.36
72236;BMP280;60146;52.498;13.462;2023-09-19T12:31:55;100729.66;;;27.10
72236;BMP280;60146;52.498;13.462;2023-09-19T12:34:27;100725.75;;;27.17
72236;BMP280;60146;52.498;13.462;2023-09-19T12:37:05;100741.75;;;27.38
72236;BMP280;60146;52.498;13.462;2023-09-19T12:39:38;100739.19;;;27.67
72236;BMP280;60146;52.498;13.462;2023-09-19T12:42:09;100733.75;;;28.10
72236;BMP280;60146;52.498;13.462;2023-09-19T12:44:37;100730.59;;;27.82
72236;BMP280;60146;52.498;13.462;2023-09-19T12:47:28;100729.16;;;28.68
72236;BMP280;60146;52.498;13.462;2023-09-19T12:50:12;100734.66;;;27.61
72236;BMP280;60146;52.498;13.462;2023-09-19T12:52:47;100729.34;;;27.50
72236;BMP280;60146;52.498;13.462;2023-09-19T12:55:25;100715.97;;;26.80
72236;BMP280;60146;52.498;13.462;2023-09-19T12:58:07;100716.53;;;27.11
72236;BMP280;60146;52.498;13.462;2023-09-19T13:00:44;100711.63;;;27.49
72236;BMP280;60146;52.498;13.462;2023-09-19T13:03:14;100728.41;;;27.70
72236;BMP280;60146;52.498;13.462;2023-09-19T13:05:53;100725.41;;;27.58
72236;BMP280;60146;52.498;13.462;2023-09-19T13:08:27;100725.25;;;26.66
72236;BMP280;60146;52.498;13.462;2023-09-19T13:11:10;100732.31;;;26.40
72236;BMP280;60146;52.498;13.462;2023-09-19T13:16:05;100720.91;;;25.85
72236;BMP280;60146;52.498;13.462;2023-09-19T13:18:52;100717.44;;;25.87
72236;BMP280;60146;52.498;13.462;2023-09-19T13:21:32;100720.88;;;25.44
72236;BMP280;60146;52.498;13.462;2023-09-19T13:24:32;100707.81;;;25.01
72236;BMP280;60146;52.498;13.462;2023-09-19T13:27:00;100711.44;;;24.43
72236;BMP280;60146;52.498;13.462;2023-09-19T13:29:25;100743.56;;;25.39
72236;BMP280;60146;52.498;13.462;2023-09-19T13:31:51;100731.22;;;25.21
72236;BMP280;60146;52.498;13.462;2023-09-19T13:34:20;100729.25;;;24.91
72236;BMP280;60146;52.498;13.462;2023-09-19T13:36:46;100722.34;;;24.97
72236;BMP280;60146;52.498;13.462;2023-09-19T13:39:17;100725.84;;;25.01
72236;BMP280;60146;52.498;13.462;2023-09-19T13:41:47;100725.91;;;24.35
72236;BMP280;60146;52.498;13.462;2023-09-19T13:44:12;100718.53;;;24.15
72236;BMP280;60146;52.498;13.462;2023-09-19T13:46:39;100717.38;;;24.16
72236;BMP280;60146;52.498;13.462;2023-09-19T13:49:05;100715.88;;;24.22
72236;BMP280;60146;52.498;13.462;2023-09-19T13:51:31;100715.41;;;24.06
72236;BMP280;60146;52.498;13.462;2023-09-19T13:53:57;100717.22;;;24.55
72236;BMP280;60146;52.498;13.462;2023-09-19T13:56:22;100716.13;;;24.69
72236;BMP280;60146;52.498;13.462;2023-09-19T13:58:49;100720.75;;;24.76
72236;BMP280;60146;52.498;13.462;2023-09-19T14:01:14;100714.16;;;24.60
72236;BMP280;60146;52.498;13.462;2023-09-19T14:03:40;100719.78;;;24.34
72236;BMP280;60146;52.498;13.462;2023-09-19T14:06:06;100720.56;;;24.38
72236;BMP280;60146;52.498;13.462;2023-09-19T14:08:32;100713.84;;;24.71
72236;BMP280;60146;52.498;13.462;2023-09-19T14:11:01;100719.28;;;24.92
72236;BMP280;60146;52.498;13.462;2023-09-19T14:13:30;100707.81;;;25.12
72236;BMP280;60146;52.498;13.462;2023-09-19T14:15:56;100717.81;;;25.18
72236;BMP280;60146;52.498;13.462;2023-09-19T14:18:21;100714.81;;;25.64
72236;BMP280;60146;52.498;13.462;2023-09-19T14:20:47;100710.94;;;25.78
72236;BMP280;60146;52.498;13.462;2023-09-19T14:23:12;100713.63;;;25.37
72236;BMP280;60146;52.498;13.462;2023-09-19T14:25:37;100709.38;;;25.09
72236;BMP280;60146;52.498;13.462;2023-09-19T14:28:04;100707.78;;;24.95
72236;BMP280;60146;52.498;13.462;2023-09-19T14:30:31;100708.94;;;24.90
72236;BMP280;60146;52.498;13.462;2023-09-19T14:32:57;100703.00;;;24.44
72236;BMP280;60146;52.498;13.462;2023-09-19T14:35:23;100708.63;;;24.26
72236;BMP280;60146;52.498;13.462;2023-09-19T14:37:48;100706.69;;;24.19
72236;BMP280;60146;52.498;13.462;2023-09-19T14:40:14;100707.41;;;24.13
72236;BMP280;60146;52.498;13.462;2023-09-19T14:42:43;100697.78;;;24.05
72236;BMP280;60146;52.498;13.462;2023-09-19T14:45:10;100706.66;;;23.63